sensor_id;sensor_type;location;lat;lon;timestamp;pressure;altitude;pressure_sealevel;temperature
27826;BMP280;15077;49.704;9.908;2023-09-08T00:01:34;98470.00;;;23.83
27826;BMP280;15077;49.704;9.908;2023-09-08T00:03:59;98472.06;;;23.79
27826;BMP280;15077;49.704;9.908;2023-09-08T00:06:25;98475.88;;;23.75
27826;BMP280;15077;49.704;9.908;2023-09-08T00:08:51;98475.31;;;23.72
27826;BMP280;15077;49.704;9.908;2023-09-08T00:11:17;98469.59;;;23.68
27826;BMP280;15077;49.704;9.908;2023-09-08T00:13:43;98475.06;;;23.65
27826;BMP280;15077;49.704;9.908;2023-09-08T00:16:09;98480.47;;;23.62
27826;BMP280;15077;49.704;9.908;2023-09-08T00:18:35;98469.66;;;23.57
27826;BMP280;15077;49.704;9.908;2023-09-08T00:21:01;98473.50;;;23.53
27826;BMP280;15077;49.704;9.908;2023-09-08T00:23:27;98476.34;;;23.50
27826;BMP280;15077;49.704;9.908;2023-09-08T00:25:54;98468.00;;;23.47
27826;BMP280;15077;49.704;9.908;2023-09-08T00:28:19;98470.88;;;23.44
27826;BMP280;15077;49.704;9.908;2023-09-08T00:30:47;98470.31;;;23.41
27826;BMP280;15077;49.704;9.908;2023-09-08T00:33:18;98469.75;;;23.37
27826;BMP280;15077;49.704;9.908;2023-09-08T00:35:52;98468.38;;;23.33
27826;BMP280;15077;49.704;9.908;2023-09-08T00:38:22;98467.69;;;23.31
27826;BMP280;15077;49.704;9.908;2023-09-08T00:40:48;98471.38;;;23.29
27826;BMP280;15077;49.704;9.908;2023-09-08T00:43:14;98469.03;;;23.26
27826;BMP280;15077;49.704;9.908;2023-09-08T00:45:42;98476.09;;;23.24
27826;BMP280;15077;49.704;9.908;2023-09-08T00:48:09;98471.19;;;23.21
27826;BMP280;15077;49.704;9.908;2023-09-08T00:50:37;98468.88;;;23.18
27826;BMP280;15077;49.704;9.908;2023-09-08T00:53:07;98470.91;;;23.14
27826;BMP280;15077;49.704;9.908;2023-09-08T00:55:34;98469.38;;;23.12
27826;BMP280;15077;49.704;9.908;2023-09-08T00:58:01;98469.66;;;23.09
27826;BMP280;15077;49.704;9.908;2023-09-08T01:00:29;98468.03;;;23.08
27826;BMP280;15077;49.704;9.908;2023-09-08T01:02:59;98464.06;;;23.04
27826;BMP280;15077;49.704;9.908;2023-09-08T01:05:25;98461.00;;;22.99
27826;BMP280;15077;49.704;9.908;2023-09-08T01:07:53;98467.16;;;22.98
27826;BMP280;15077;49.704;9.908;2023-09-08T01:10:22;98470.94;;;22.94
27826;BMP280;15077;49.704;9.908;2023-09-08T01:12:50;98466.81;;;22.91
27826;BMP280;15077;49.704;9.908;2023-09-08T01:15:18;98464.59;;;22.87
27826;BMP280;15077;49.704;9.908;2023-09-08T01:17:44;98471.81;;;22.84
27826;BMP280;15077;49.704;9.908;2023-09-08T01:23:24;98470.66;;;22.77
27826;BMP280;15077;49.704;9.908;2023-09-08T01:26:08;98476.47;;;22.69
27826;BMP280;15077;49.704;9.908;2023-09-08T01:28:37;98469.81;;;22.67
27826;BMP280;15077;49.704;9.908;2023-09-08T01:31:07;98471.81;;;22.63
27826;BMP280;15077;49.704;9.908;2023-09-08T01:33:36;98473.97;;;22.58
27826;BMP280;15077;49.704;9.908;2023-09-08T01:36:03;98473.25;;;22.56
27826;BMP280;15077;49.704;9.908;2023-09-08T01:38:30;98470.94;;;22.53
27826;BMP280;15077;49.704;9.908;2023-09-08T01:40:57;98469.31;;;22.52
27826;BMP280;15077;49.704;9.908;2023-09-08T01:43:22;98464.41;;;22.49
27826;BMP280;15077;49.704;9.908;2023-09-08T01:45:49;98463.69;;;22.47
27826;BMP280;15077;49.704;9.908;2023-09-08T01:48:16;98457.03;;;22.45
27826;BMP280;15077;49.704;9.908;2023-09-08T01:50:44;98463.25;;;22.42
27826;BMP280;15077;49.704;9.908;2023-09-08T01:53:11;98467.75;;;22.41
27826;BMP280;15077;49.704;9.908;2023-09-08T01:55:37;98462.81;;;22.38
27826;BMP280;15077;49.704;9.908;2023-09-08T01:58:03;98469.84;;;22.36
27826;BMP280;15077;49.704;9.908;2023-09-08T02:00:31;98469.97;;;22.34
27826;BMP280;15077;49.704;9.908;2023-09-08T02:02:58;98465.91;;;22.32
27826;BMP280;15077;49.704;9.908;2023-09-08T02:05:24;98464.25;;;22.31
27826;BMP280;15077;49.704;9.908;2023-09-08T02:07:52;98461.25;;;22.26
27826;BMP280;15077;49.704;9.908;2023-09-08T02:10:23;98458.78;;;22.24
27826;BMP280;15077;49.704;9.908;2023-09-08T02:12:49;98454.69;;;22.22
27826;BMP280;15077;49.704;9.908;2023-09-08T02:15:16;98451.50;;;22.18
27826;BMP280;15077;49.704;9.908;2023-09-08T02:17:44;98458.53;;;22.16
27826;BMP280;15077;49.704;9.908;2023-09-08T02:20:11;98456.19;;;22.13
27826;BMP280;15077;49.704;9.908;2023-09-08T02:22:37;98448.72;;;22.10
27826;BMP280;15077;49.704;9.908;2023-09-08T02:25:06;98452.34;;;22.08
27826;BMP280;15077;49.704;9.908;2023-09-08T02:27:33;98460.22;;;22.06
27826;BMP280;15077;49.704;9.908;2023-09-08T02:29:59;98451.91;;;22.03
27826;BMP280;15077;49.704;9.908;2023-09-08T02:32:25;98449.56;;;22.00
27826;BMP280;15077;49.704;9.908;2023-09-08T02:34:51;98448.88;;;21.98
27826;BMP280;15077;49.704;9.908;2023-09-08T02:37:19;98456.63;;;21.98
27826;BMP280;15077;49.704;9.908;2023-09-08T02:39:50;98450.06;;;21.94
27826;BMP280;15077;49.704;9.908;2023-09-08T02:42:18;98447.63;;;21.92
27826;BMP280;15077;49.704;9.908;2023-09-08T02:44:45;98451.25;;;21.90
27826;BMP280;15077;49.704;9.908;2023-09-08T02:47:10;98449.75;;;21.88
27826;BMP280;15077;49.704;9.908;2023-09-08T02:49:38;98444.72;;;21.86
27826;BMP280;15077;49.704;9.908;2023-09-08T02:52:06;98444.84;;;21.85
27826;BMP280;15077;49.704;9.908;2023-09-08T02:54:33;98450.13;;;21.83
27826;BMP280;15077;49.704;9.908;2023-09-08T02:57:00;98450.38;;;21.80
27826;BMP280;15077;49.704;9.908;2023-09-08T02:59:27;98444.50;;;21.78
27826;BMP280;15077;49.704;9.908;2023-09-08T03:01:55;98453.19;;;21.77
27826;BMP280;15077;49.704;9.908;2023-09-08T03:04:22;98444.03;;;21.73
27826;BMP280;15077;49.704;9.908;2023-09-08T03:06:48;98447.69;;;21.71
27826;BMP280;15077;49.704;9.908;2023-09-08T03:09:15;98451.34;;;21.68
27826;BMP280;15077;49.704;9.908;2023-09-08T03:11:43;98445.47;;;21.66
27826;BMP280;15077;49.704;9.908;2023-09-08T03:14:09;98447.47;;;21.63
27826;BMP280;15077;49.704;9.908;2023-09-08T03:16:37;98446.75;;;21.61
27826;BMP280;15077;49.704;9.908;2023-09-08T03:19:03;98441.03;;;21.57
27826;BMP280;15077;49.704;9.908;2023-09-08T03:21:29;98437.78;;;21.55
27826;BMP280;15077;49.704;9.908;2023-09-08T03:23:54;98449.94;;;21.53
27826;BMP280;15077;49.704;9.908;2023-09-08T03:26:20;98450.19;;;21.50
27826;BMP280;15077;49.704;9.908;2023-09-08T03:28:49;98446.91;;;21.48
27826;BMP280;15077;49.704;9.908;2023-09-08T03:31:15;98445.47;;;21.44
27826;BMP280;15077;49.704;9.908;2023-09-08T03:33:41;98445.59;;;21.43
27826;BMP280;15077;49.704;9.908;2023-09-08T03:36:08;98444.09;;;21.41
27826;BMP280;15077;49.704;9.908;2023-09-08T03:38:35;98451.94;;;21.39
27826;BMP280;15077;49.704;9.908;2023-09-08T03:41:04;98448.66;;;21.37
27826;BMP280;15077;49.704;9.908;2023-09-08T03:43:31;98447.97;;;21.35
27826;BMP280;15077;49.704;9.908;2023-09-08T03:45:59;98443.16;;;21.31
27826;BMP280;15077;49.704;9.908;2023-09-08T03:48:25;98445.06;;;21.29
27826;BMP280;15077;49.704;9.908;2023-09-08T03:50:50;98440.13;;;21.26
27826;BMP280;15077;49.704;9.908;2023-09-08T03:53:18;98442.00;;;21.24
27826;BMP280;15077;49.704;9.908;2023-09-08T03:55:44;98443.88;;;21.22
27826;BMP280;15077;49.704;9.908;2023-09-08T03:58:11;98444.94;;;21.19
27826;BMP280;15077;49.704;9.908;2023-09-08T04:00:37;98447.63;;;21.18
27826;BMP280;15077;49.704;9.908;2023-09-08T04:03:05;98447.88;;;21.15
27826;BMP280;15077;49.704;9.908;2023-09-08T04:05:36;98445.41;;;21.13
27826;BMP280;15077;49.704;9.908;2023-09-08T04:08:07;98452.44;;;21.11
27826;BMP280;15077;49.704;9.908;2023-09-08T04:10:33;98455.38;;;21.07
27826;BMP280;15077;49.704;9.908;2023-09-08T04:12:59;98453.03;;;21.04
27826;BMP280;15077;49.704;9.908;2023-09-08T04:15:25;98459.13;;;21.03
27826;BMP280;15077;49.704;9.908;2023-09-08T04:17:51;98452.53;;;20.99
27826;BMP280;15077;49.704;9.908;2023-09-08T04:20:17;98449.28;;;20.97
27826;BMP280;15077;49.704;9.908;2023-09-08T04:22:43;98446.00;;;20.95
27826;BMP280;15077;49.704;9.908;2023-09-08T04:25:10;98447.84;;;20.93
27826;BMP280;15077;49.704;9.908;2023-09-08T04:27:36;98448.09;;;20.90
27826;BMP280;15077;49.704;9.908;2023-09-08T04:30:06;98443.06;;;20.89
27826;BMP280;15077;49.704;9.908;2023-09-08T04:32:32;98448.31;;;20.87
27826;BMP280;15077;49.704;9.908;2023-09-08T04:34:58;98445.97;;;20.84
27826;BMP280;15077;49.704;9.908;2023-09-08T04:37:24;98444.47;;;20.82
27826;BMP280;15077;49.704;9.908;2023-09-08T04:39:50;98456.63;;;20.80
27826;BMP280;15077;49.704;9.908;2023-09-08T04:42:15;98453.38;;;20.78
27826;BMP280;15077;49.704;9.908;2023-09-08T04:44:41;98456.06;;;20.76
27826;BMP280;15077;49.704;9.908;2023-09-08T04:47:07;98452.78;;;20.74
27826;BMP280;15077;49.704;9.908;2023-09-08T04:49:33;98451.38;;;20.70
27826;BMP280;15077;49.704;9.908;2023-09-08T04:51:58;98448.06;;;20.68
27826;BMP280;15077;49.704;9.908;2023-09-08T04:54:24;98449.91;;;20.66
27826;BMP280;15077;49.704;9.908;2023-09-08T04:56:54;98455.88;;;20.67
27826;BMP280;15077;49.704;9.908;2023-09-08T04:59:20;98452.72;;;20.63
27826;BMP280;15077;49.704;9.908;2023-09-08T05:01:46;98461.03;;;20.67
27826;BMP280;15077;49.704;9.908;2023-09-08T05:04:12;98453.41;;;20.65
27826;BMP280;15077;49.704;9.908;2023-09-08T05:06:38;98457.88;;;20.63
27826;BMP280;15077;49.704;9.908;2023-09-08T05:09:03;98456.34;;;20.61
27826;BMP280;15077;49.704;9.908;2023-09-08T05:11:29;98456.44;;;20.59
27826;BMP280;15077;49.704;9.908;2023-09-08T05:13:55;98465.25;;;20.57
27826;BMP280;15077;49.704;9.908;2023-09-08T05:16:21;98472.25;;;20.55
27826;BMP280;15077;49.704;9.908;2023-09-08T05:19:05;98478.25;;;20.55
27826;BMP280;15077;49.704;9.908;2023-09-08T05:21:34;98476.69;;;20.53
27826;BMP280;15077;49.704;9.908;2023-09-08T05:24:00;98483.63;;;20.52
27826;BMP280;15077;49.704;9.908;2023-09-08T05:26:26;98485.47;;;20.50
27826;BMP280;15077;49.704;9.908;2023-09-08T05:28:51;98477.84;;;20.49
27826;BMP280;15077;49.704;9.908;2023-09-08T05:31:17;98479.72;;;20.47
27826;BMP280;15077;49.704;9.908;2023-09-08T05:33:43;98484.06;;;20.46
27826;BMP280;15077;49.704;9.908;2023-09-08T05:36:09;98482.41;;;20.45
27826;BMP280;15077;49.704;9.908;2023-09-08T05:38:35;98487.56;;;20.45
27826;BMP280;15077;49.704;9.908;2023-09-08T05:41:00;98483.22;;;20.46
27826;BMP280;15077;49.704;9.908;2023-09-08T05:43:26;98485.00;;;20.45
27826;BMP280;15077;49.704;9.908;2023-09-08T05:45:52;98486.66;;;20.46
27826;BMP280;15077;49.704;9.908;2023-09-08T05:48:18;98489.91;;;20.48
27826;BMP280;15077;49.704;9.908;2023-09-08T05:50:43;98489.13;;;20.48
27826;BMP280;15077;49.704;9.908;2023-09-08T05:53:09;98488.16;;;20.49
27826;BMP280;15077;49.704;9.908;2023-09-08T05:55:35;98490.63;;;20.50
27826;BMP280;15077;49.704;9.908;2023-09-08T05:58:00;98487.94;;;20.52
27826;BMP280;15077;49.704;9.908;2023-09-08T06:00:26;98499.88;;;20.53
27826;BMP280;15077;49.704;9.908;2023-09-08T06:02:52;98489.56;;;20.53
27826;BMP280;15077;49.704;9.908;2023-09-08T06:05:18;98492.84;;;20.55
27826;BMP280;15077;49.704;9.908;2023-09-08T06:07:44;98496.28;;;20.55
27826;BMP280;15077;49.704;9.908;2023-09-08T06:10:10;98497.78;;;20.58
27826;BMP280;15077;49.704;9.908;2023-09-08T06:12:35;98499.31;;;20.60
27826;BMP280;15077;49.704;9.908;2023-09-08T06:15:03;98506.00;;;20.63
27826;BMP280;15077;49.704;9.908;2023-09-08T06:17:29;98499.78;;;20.65
27826;BMP280;15077;49.704;9.908;2023-09-08T06:19:54;98505.59;;;20.69
27826;BMP280;15077;49.704;9.908;2023-09-08T06:22:20;98506.16;;;20.72
27826;BMP280;15077;49.704;9.908;2023-09-08T06:24:46;98504.09;;;20.77
27826;BMP280;15077;49.704;9.908;2023-09-08T06:27:14;98508.03;;;20.81
27826;BMP280;15077;49.704;9.908;2023-09-08T06:29:39;98504.31;;;20.85
27826;BMP280;15077;49.704;9.908;2023-09-08T06:32:06;98498.81;;;20.90
27826;BMP280;15077;49.704;9.908;2023-09-08T06:34:32;98495.19;;;20.92
27826;BMP280;15077;49.704;9.908;2023-09-08T06:37:00;98502.47;;;20.98
27826;BMP280;15077;49.704;9.908;2023-09-08T06:39:25;98496.13;;;21.02
27826;BMP280;15077;49.704;9.908;2023-09-08T06:41:52;98500.94;;;21.06
27826;BMP280;15077;49.704;9.908;2023-09-08T06:44:20;98504.00;;;21.11
27826;BMP280;15077;49.704;9.908;2023-09-08T06:46:45;98495.91;;;21.16
27826;BMP280;15077;49.704;9.908;2023-09-08T06:49:11;98494.75;;;21.20
27826;BMP280;15077;49.704;9.908;2023-09-08T06:51:37;98500.38;;;21.25
27826;BMP280;15077;49.704;9.908;2023-09-08T06:54:04;98502.47;;;21.31
27826;BMP280;15077;49.704;9.908;2023-09-08T06:56:30;98508.06;;;21.36
27826;BMP280;15077;49.704;9.908;2023-09-08T06:58:56;98500.84;;;21.41
27826;BMP280;15077;49.704;9.908;2023-09-08T07:01:24;98498.72;;;21.45
27826;BMP280;15077;49.704;9.908;2023-09-08T07:03:50;98506.00;;;21.51
27826;BMP280;15077;49.704;9.908;2023-09-08T07:06:16;98508.09;;;21.57
27826;BMP280;15077;49.704;9.908;2023-09-08T07:08:42;98513.72;;;21.62
27826;BMP280;15077;49.704;9.908;2023-09-08T07:11:08;98519.34;;;21.67
27826;BMP280;15077;49.704;9.908;2023-09-08T07:13:34;98509.34;;;21.74
27826;BMP280;15077;49.704;9.908;2023-09-08T07:16:00;98521.66;;;21.81
27826;BMP280;15077;49.704;9.908;2023-09-08T07:18:26;98520.47;;;21.85
27826;BMP280;15077;49.704;9.908;2023-09-08T07:20:51;98518.09;;;21.93
27826;BMP280;15077;49.704;9.908;2023-09-08T07:23:18;98515.03;;;21.99
27826;BMP280;15077;49.704;9.908;2023-09-08T07:25:50;98516.19;;;22.06
27826;BMP280;15077;49.704;9.908;2023-09-08T07:28:16;98509.75;;;22.11
27826;BMP280;15077;49.704;9.908;2023-09-08T07:30:42;98515.22;;;22.18
27826;BMP280;15077;49.704;9.908;2023-09-08T07:33:08;98507.84;;;22.24
27826;BMP280;15077;49.704;9.908;2023-09-08T07:35:39;98512.28;;;22.33
27826;BMP280;15077;49.704;9.908;2023-09-08T07:38:06;98510.94;;;22.39
27826;BMP280;15077;49.704;9.908;2023-09-08T07:40:33;98513.03;;;22.44
27826;BMP280;15077;49.704;9.908;2023-09-08T07:42:59;98513.22;;;22.52
27826;BMP280;15077;49.704;9.908;2023-09-08T07:45:25;98513.41;;;22.60
27826;BMP280;15077;49.704;9.908;2023-09-08T07:47:51;98511.97;;;22.67
27826;BMP280;15077;49.704;9.908;2023-09-08T07:50:27;98519.22;;;22.73
27826;BMP280;15077;49.704;9.908;2023-09-08T07:52:56;98512.59;;;22.80
27826;BMP280;15077;49.704;9.908;2023-09-08T07:55:23;98509.50;;;22.86
27826;BMP280;15077;49.704;9.908;2023-09-08T07:57:50;98510.63;;;22.93
27826;BMP280;15077;49.704;9.908;2023-09-08T08:00:17;98500.63;;;22.99
27826;BMP280;15077;49.704;9.908;2023-09-08T08:02:47;98501.63;;;23.08
27826;BMP280;15077;49.704;9.908;2023-09-08T08:05:14;98502.88;;;23.13
27826;BMP280;15077;49.704;9.908;2023-09-08T08:07:42;98510.81;;;23.21
27826;BMP280;15077;49.704;9.908;2023-09-08T08:10:10;98505.00;;;23.29
27826;BMP280;15077;49.704;9.908;2023-09-08T08:12:37;98513.72;;;23.37
27826;BMP280;15077;49.704;9.908;2023-09-08T08:15:03;98512.38;;;23.42
27826;BMP280;15077;49.704;9.908;2023-09-08T08:17:30;98503.03;;;23.51
27826;BMP280;15077;49.704;9.908;2023-09-08T08:19:57;98510.13;;;23.58
27826;BMP280;15077;49.704;9.908;2023-09-08T08:22:32;98504.47;;;23.64
27826;BMP280;15077;49.704;9.908;2023-09-08T08:24:58;98498.63;;;23.72
27826;BMP280;15077;49.704;9.908;2023-09-08T08:27:24;98497.16;;;23.79
27826;BMP280;15077;49.704;9.908;2023-09-08T08:29:50;98498.22;;;23.86
27826;BMP280;15077;49.704;9.908;2023-09-08T08:32:17;98498.25;;;23.95
27826;BMP280;15077;49.704;9.908;2023-09-08T08:34:43;98489.69;;;24.04
27826;BMP280;15077;49.704;9.908;2023-09-08T08:37:10;98489.66;;;24.13
27826;BMP280;15077;49.704;9.908;2023-09-08T08:39:36;98496.63;;;24.22
27826;BMP280;15077;49.704;9.908;2023-09-08T08:42:10;98489.56;;;24.34
27826;BMP280;15077;49.704;9.908;2023-09-08T08:44:38;98485.34;;;24.42
27826;BMP280;15077;49.704;9.908;2023-09-08T08:47:07;98482.72;;;24.51
27826;BMP280;15077;49.704;9.908;2023-09-08T08:49:34;98494.72;;;24.62
27826;BMP280;15077;49.704;9.908;2023-09-08T08:52:00;98494.72;;;24.71
27826;BMP280;15077;49.704;9.908;2023-09-08T08:54:35;98491.16;;;24.82
27826;BMP280;15077;49.704;9.908;2023-09-08T08:57:04;98491.13;;;24.91
27826;BMP280;15077;49.704;9.908;2023-09-08T08:59:31;98486.75;;;25.01
27826;BMP280;15077;49.704;9.908;2023-09-08T09:01:59;98492.75;;;25.11
27826;BMP280;15077;49.704;9.908;2023-09-08T09:04:26;98492.41;;;25.23
27826;BMP280;15077;49.704;9.908;2023-09-08T09:06:55;98488.81;;;25.34
27826;BMP280;15077;49.704;9.908;2023-09-08T09:09:22;98481.81;;;25.43
27826;BMP280;15077;49.704;9.908;2023-09-08T09:11:49;98477.91;;;25.57
27826;BMP280;15077;49.704;9.908;2023-09-08T09:14:15;98468.19;;;25.68
27826;BMP280;15077;49.704;9.908;2023-09-08T09:16:43;98465.38;;;25.79
27826;BMP280;15077;49.704;9.908;2023-09-08T09:19:17;98474.56;;;25.91
27826;BMP280;15077;49.704;9.908;2023-09-08T09:21:48;98474.22;;;26.03
27826;BMP280;15077;49.704;9.908;2023-09-08T09:24:28;98473.03;;;26.15
27826;BMP280;15077;49.704;9.908;2023-09-08T09:26:56;98482.78;;;26.31
27826;BMP280;15077;49.704;9.908;2023-09-08T09:29:22;98478.81;;;26.44
27826;BMP280;15077;49.704;9.908;2023-09-08T09:32:07;98474.34;;;26.54
27826;BMP280;15077;49.704;9.908;2023-09-08T09:34:36;98466.00;;;26.68
27826;BMP280;15077;49.704;9.908;2023-09-08T09:37:04;98472.44;;;26.81
27826;BMP280;15077;49.704;9.908;2023-09-08T09:39:30;98465.22;;;26.92
27826;BMP280;15077;49.704;9.908;2023-09-08T09:41:57;98469.03;;;27.06
27826;BMP280;15077;49.704;9.908;2023-09-08T09:44:24;98470.09;;;27.21
27826;BMP280;15077;49.704;9.908;2023-09-08T09:46:54;98471.16;;;27.36
27826;BMP280;15077;49.704;9.908;2023-09-08T09:49:20;98461.09;;;27.48
27826;BMP280;15077;49.704;9.908;2023-09-08T09:51:50;98461.34;;;27.63
27826;BMP280;15077;49.704;9.908;2023-09-08T09:54:18;98460.06;;;27.75
27826;BMP280;15077;49.704;9.908;2023-09-08T09:56:45;98463.81;;;27.88
27826;BMP280;15077;49.704;9.908;2023-09-08T09:59:13;98459.78;;;28.01
27826;BMP280;15077;49.704;9.908;2023-09-08T10:01:42;98462.59;;;28.16
27826;BMP280;15077;49.704;9.908;2023-09-08T10:04:09;98456.09;;;28.28
27826;BMP280;15077;49.704;9.908;2023-09-08T10:06:38;98453.66;;;28.42
27826;BMP280;15077;49.704;9.908;2023-09-08T10:09:06;98438.31;;;28.55
27826;BMP280;15077;49.704;9.908;2023-09-08T10:11:46;98446.34;;;28.69
27826;BMP280;15077;49.704;9.908;2023-09-08T10:14:14;98445.00;;;28.81
27826;BMP280;15077;49.704;9.908;2023-09-08T10:16:43;98439.09;;;28.95
27826;BMP280;15077;49.704;9.908;2023-09-08T10:19:10;98439.53;;;29.06
27826;BMP280;15077;49.704;9.908;2023-09-08T10:21:41;98438.34;;;29.17
27826;BMP280;15077;49.704;9.908;2023-09-08T10:24:27;98430.19;;;29.28
27826;BMP280;15077;49.704;9.908;2023-09-08T10:27:09;98426.88;;;29.41
27826;BMP280;15077;49.704;9.908;2023-09-08T10:29:39;98416.69;;;29.54
27826;BMP280;15077;49.704;9.908;2023-09-08T10:32:08;98421.78;;;29.70
27826;BMP280;15077;49.704;9.908;2023-09-08T10:34:36;98420.09;;;29.85
27826;BMP280;15077;49.704;9.908;2023-09-08T10:37:18;98418.91;;;29.95
27826;BMP280;15077;49.704;9.908;2023-09-08T10:39:44;98418.59;;;30.13
27826;BMP280;15077;49.704;9.908;2023-09-08T10:47:14;98407.25;;;30.57
27826;BMP280;15077;49.704;9.908;2023-09-08T10:49:40;98407.91;;;30.73
27826;BMP280;15077;49.704;9.908;2023-09-08T10:52:12;98408.09;;;30.86
27826;BMP280;15077;49.704;9.908;2023-09-08T10:54:47;98413.75;;;30.97
27826;BMP280;15077;49.704;9.908;2023-09-08T10:57:23;98399.56;;;31.06
27826;BMP280;15077;49.704;9.908;2023-09-08T10:59:57;98399.91;;;31.18
27826;BMP280;15077;49.704;9.908;2023-09-08T11:05:11;98396.53;;;31.38
27826;BMP280;15077;49.704;9.908;2023-09-08T11:07:40;98392.38;;;31.43
27826;BMP280;15077;49.704;9.908;2023-09-08T11:10:08;98405.75;;;31.48
27826;BMP280;15077;49.704;9.908;2023-09-08T11:12:34;98394.53;;;31.54
27826;BMP280;15077;49.704;9.908;2023-09-08T11:15:03;98395.78;;;31.58
27826;BMP280;15077;49.704;9.908;2023-09-08T11:17:35;98395.69;;;31.66
27826;BMP280;15077;49.704;9.908;2023-09-08T11:20:05;98394.94;;;31.72
27826;BMP280;15077;49.704;9.908;2023-09-08T11:22:38;98395.00;;;31.79
27826;BMP280;15077;49.704;9.908;2023-09-08T11:25:07;98396.69;;;31.86
27826;BMP280;15077;49.704;9.908;2023-09-08T11:27:36;98392.16;;;31.94
27826;BMP280;15077;49.704;9.908;2023-09-08T11:30:02;98394.44;;;32.04
27826;BMP280;15077;49.704;9.908;2023-09-08T11:32:35;98395.94;;;32.13
27826;BMP280;15077;49.704;9.908;2023-09-08T11:35:05;98394.19;;;32.20
27826;BMP280;15077;49.704;9.908;2023-09-08T11:37:40;98391.66;;;32.26
27826;BMP280;15077;49.704;9.908;2023-09-08T11:40:09;98387.88;;;32.35
27826;BMP280;15077;49.704;9.908;2023-09-08T11:42:42;98389.22;;;32.45
27826;BMP280;15077;49.704;9.908;2023-09-08T11:45:13;98381.38;;;32.31
27826;BMP280;15077;49.704;9.908;2023-09-08T11:47:43;98380.97;;;32.55
27826;BMP280;15077;49.704;9.908;2023-09-08T11:50:13;98383.69;;;32.68
27826;BMP280;15077;49.704;9.908;2023-09-08T11:52:48;98388.00;;;32.82
27826;BMP280;15077;49.704;9.908;2023-09-08T11:55:15;98376.44;;;32.70
27826;BMP280;15077;49.704;9.908;2023-09-08T11:57:43;98380.41;;;32.93
27826;BMP280;15077;49.704;9.908;2023-09-08T12:00:11;98374.00;;;33.02
27826;BMP280;15077;49.704;9.908;2023-09-08T12:02:42;98375.25;;;33.06
27826;BMP280;15077;49.704;9.908;2023-09-08T12:05:25;98371.22;;;33.10
27826;BMP280;15077;49.704;9.908;2023-09-08T12:07:53;98373.69;;;33.18
27826;BMP280;15077;49.704;9.908;2023-09-08T12:10:19;98361.78;;;33.22
27826;BMP280;15077;49.704;9.908;2023-09-08T12:12:53;98364.81;;;33.25
27826;BMP280;15077;49.704;9.908;2023-09-08T12:15:37;98360.38;;;33.26
27826;BMP280;15077;49.704;9.908;2023-09-08T12:18:09;98364.84;;;33.32
27826;BMP280;15077;49.704;9.908;2023-09-08T12:20:37;98363.63;;;33.34
27826;BMP280;15077;49.704;9.908;2023-09-08T12:23:05;98366.06;;;33.36
27826;BMP280;15077;49.704;9.908;2023-09-08T12:25:33;98362.44;;;33.37
27826;BMP280;15077;49.704;9.908;2023-09-08T12:28:00;98360.41;;;33.38
27826;BMP280;15077;49.704;9.908;2023-09-08T12:30:28;98359.44;;;33.39
27826;BMP280;15077;49.704;9.908;2023-09-08T12:33:01;98356.78;;;33.39
27826;BMP280;15077;49.704;9.908;2023-09-08T12:35:27;98352.75;;;33.43
27826;BMP280;15077;49.704;9.908;2023-09-08T12:37:59;98361.28;;;33.45
27826;BMP280;15077;49.704;9.908;2023-09-08T12:40:26;98353.31;;;33.26
27826;BMP280;15077;49.704;9.908;2023-09-08T12:42:54;98351.16;;;33.42
27826;BMP280;15077;49.704;9.908;2023-09-08T12:45:22;98350.78;;;33.45
27826;BMP280;15077;49.704;9.908;2023-09-08T12:47:51;98342.69;;;33.47
27826;BMP280;15077;49.704;9.908;2023-09-08T12:50:17;98343.91;;;33.51
27826;BMP280;15077;49.704;9.908;2023-09-08T12:52:44;98343.31;;;33.55
27826;BMP280;15077;49.704;9.908;2023-09-08T12:55:10;98345.53;;;33.58
27826;BMP280;15077;49.704;9.908;2023-09-08T12:57:36;98348.78;;;33.60
27826;BMP280;15077;49.704;9.908;2023-09-08T13:00:06;98345.34;;;33.66
27826;BMP280;15077;49.704;9.908;2023-09-08T13:02:33;98348.81;;;33.73
27826;BMP280;15077;49.704;9.908;2023-09-08T13:04:59;98343.16;;;33.76
27826;BMP280;15077;49.704;9.908;2023-09-08T13:07:26;98345.38;;;33.79
27826;BMP280;15077;49.704;9.908;2023-09-08T13:09:52;98342.75;;;33.79
27826;BMP280;15077;49.704;9.908;2023-09-08T13:12:18;98343.16;;;33.83
27826;BMP280;15077;49.704;9.908;2023-09-08T13:14:43;98335.25;;;33.83
27826;BMP280;15077;49.704;9.908;2023-09-08T13:17:13;98330.81;;;33.89
27826;BMP280;15077;49.704;9.908;2023-09-08T13:19:41;98327.81;;;33.92
27826;BMP280;15077;49.704;9.908;2023-09-08T13:22:08;98327.81;;;33.99
27826;BMP280;15077;49.704;9.908;2023-09-08T13:24:34;98327.00;;;34.05
27826;BMP280;15077;49.704;9.908;2023-09-08T13:27:03;98327.41;;;34.08
27826;BMP280;15077;49.704;9.908;2023-09-08T13:29:29;98328.63;;;34.12
27826;BMP280;15077;49.704;9.908;2023-09-08T13:31:55;98319.31;;;34.16
27826;BMP280;15077;49.704;9.908;2023-09-08T13:34:22;98326.19;;;34.24
27826;BMP280;15077;49.704;9.908;2023-09-08T13:36:48;98314.03;;;34.29
27826;BMP280;15077;49.704;9.908;2023-09-08T13:39:14;98316.88;;;34.34
27826;BMP280;15077;49.704;9.908;2023-09-08T13:41:51;98316.03;;;34.40
27826;BMP280;15077;49.704;9.908;2023-09-08T13:44:19;98314.88;;;34.42
27826;BMP280;15077;49.704;9.908;2023-09-08T13:46:46;98311.00;;;34.45
27826;BMP280;15077;49.704;9.908;2023-09-08T13:49:13;98300.25;;;34.46
27826;BMP280;15077;49.704;9.908;2023-09-08T13:51:39;98291.56;;;34.46
27826;BMP280;15077;49.704;9.908;2023-09-08T13:54:05;98297.81;;;34.45
27826;BMP280;15077;49.704;9.908;2023-09-08T13:56:32;98304.50;;;34.47
27826;BMP280;15077;49.704;9.908;2023-09-08T13:58:57;98296.63;;;34.47
27826;BMP280;15077;49.704;9.908;2023-09-08T14:01:23;98300.03;;;34.48
27826;BMP280;15077;49.704;9.908;2023-09-08T14:03:49;98301.28;;;34.45
27826;BMP280;15077;49.704;9.908;2023-09-08T14:06:21;98298.66;;;34.45
27826;BMP280;15077;49.704;9.908;2023-09-08T14:08:47;98291.97;;;34.43
27826;BMP280;15077;49.704;9.908;2023-09-08T14:11:12;98287.72;;;34.42
27826;BMP280;15077;49.704;9.908;2023-09-08T14:13:38;98283.28;;;34.42
27826;BMP280;15077;49.704;9.908;2023-09-08T14:16:04;98282.88;;;34.45
27826;BMP280;15077;49.704;9.908;2023-09-08T14:18:30;98285.28;;;34.47
27826;BMP280;15077;49.704;9.908;2023-09-08T14:20:56;98289.53;;;34.48
27826;BMP280;15077;49.704;9.908;2023-09-08T14:23:22;98292.97;;;34.48